<?xml version="1.0" encoding="UTF-8" standalone="no" ?><gpx xmlns="http://www.topografix.com/GPX/1/1" xmlns:gpxx="http://www.garmin.com/xmlschemas/GpxExtensions/v3" xmlns:wptx1="http://www.garmin.com/xmlschemas/WaypointExtension/v1" xmlns:gpxtpx="http://www.garmin.com/xmlschemas/TrackPointExtension/v1" creator="Dakota 20" version="1.1" xmlns:xsi="http://www.w3.org/2001/XMLSchema-instance" xsi:schemaLocation="http://www.topografix.com/GPX/1/1 http://www.topografix.com/GPX/1/1/gpx.xsd http://www.garmin.com/xmlschemas/GpxExtensions/v3 http://www8.garmin.com/xmlschemas/GpxExtensionsv3.xsd http://www.garmin.com/xmlschemas/WaypointExtension/v1 http://www8.garmin.com/xmlschemas/WaypointExtensionv1.xsd http://www.garmin.com/xmlschemas/TrackPointExtension/v1 http://www.garmin.com/xmlschemas/TrackPointExtensionv1.xsd"><metadata><link href="http://www.garmin.com"><text>Garmin International</text></link><time>2017-03-29T18:31:09Z</time></metadata><trk><name>Current Track: 29 MAR 2017 10:02</name><extensions><gpxx:TrackExtension><gpxx:DisplayColor>Cyan</gpxx:DisplayColor></gpxx:TrackExtension></extensions><trkseg><trkpt lat="51.9011006691" lon="-1.7613870464"><ele>77.52</ele><time>2017-03-29T09:02:51Z</time></trkpt><trkpt lat="51.9011028484" lon="-1.7613830231"><ele>74.16</ele><time>2017-03-29T09:02:52Z</time></trkpt><trkpt lat="51.9011064526" lon="-1.7613806762"><ele>75.60</ele><time>2017-03-29T09:02:53Z</time></trkpt><trkpt lat="51.9011097215" lon="-1.7613849510"><ele>76.08</ele><time>2017-03-29T09:02:55Z</time></trkpt><trkpt lat="51.9011219591" lon="-1.7614805885"><ele>77.04</ele><time>2017-03-29T09:03:17Z</time></trkpt><trkpt lat="51.9011929538" lon="-1.7615219951"><ele>76.56</ele><time>2017-03-29T09:03:31Z</time></trkpt><trkpt lat="51.9012196921" lon="-1.7615143675"><ele>77.04</ele><time>2017-03-29T09:03:34Z</time></trkpt><trkpt lat="51.9013777748" lon="-1.7614696920"><ele>77.52</ele><time>2017-03-29T09:03:53Z</time></trkpt><trkpt lat="51.9014504459" lon="-1.7613296304"><ele>77.04</ele><time>2017-03-29T09:04:09Z</time></trkpt><trkpt lat="51.9014506973" lon="-1.7612266168"><ele>77.04</ele><time>2017-03-29T09:04:24Z</time></trkpt><trkpt lat="51.9014553074" lon="-1.7611391097"><ele>77.04</ele><time>2017-03-29T09:04:41Z</time></trkpt><trkpt lat="51.9014074467" lon="-1.7609399557"><ele>77.52</ele><time>2017-03-29T09:04:57Z</time></trkpt><trkpt lat="51.9013507850" lon="-1.7607536260"><ele>77.04</ele><time>2017-03-29T09:05:09Z</time></trkpt><trkpt lat="51.9012341928" lon="-1.7605640274"><ele>77.04</ele><time>2017-03-29T09:05:24Z</time></trkpt><trkpt lat="51.9011255633" lon="-1.7604181822"><ele>77.52</ele><time>2017-03-29T09:05:39Z</time></trkpt><trkpt lat="51.9010479469" lon="-1.7604023404"><ele>77.52</ele><time>2017-03-29T09:05:45Z</time></trkpt><trkpt lat="51.9008478709" lon="-1.7603980657"><ele>77.52</ele><time>2017-03-29T09:06:02Z</time></trkpt><trkpt lat="51.9007292669" lon="-1.7604114767"><ele>78.00</ele><time>2017-03-29T09:06:19Z</time></trkpt><trkpt lat="51.9005672447" lon="-1.7604439985"><ele>79.45</ele><time>2017-03-29T09:06:37Z</time></trkpt><trkpt lat="51.9004110899" lon="-1.7604514584"><ele>79.45</ele><time>2017-03-29T09:06:54Z</time></trkpt><trkpt lat="51.9002058171" lon="-1.7604957987"><ele>79.93</ele><time>2017-03-29T09:07:09Z</time></trkpt><trkpt lat="51.9000048190" lon="-1.7605127301"><ele>80.41</ele><time>2017-03-29T09:07:25Z</time></trkpt><trkpt lat="51.8998790905" lon="-1.7605771031"><ele>80.89</ele><time>2017-03-29T09:07:44Z</time></trkpt><trkpt lat="51.8997272104" lon="-1.7606309988"><ele>81.37</ele><time>2017-03-29T09:08:02Z</time></trkpt><trkpt lat="51.8995428924" lon="-1.7607758380"><ele>80.89</ele><time>2017-03-29T09:08:19Z</time></trkpt><trkpt lat="51.8994248752" lon="-1.7608183343"><ele>81.85</ele><time>2017-03-29T09:08:36Z</time></trkpt><trkpt lat="51.8992901780" lon="-1.7609118763"><ele>82.33</ele><time>2017-03-29T09:08:53Z</time></trkpt><trkpt lat="51.8990245555" lon="-1.7611589748"><ele>82.81</ele><time>2017-03-29T09:09:09Z</time></trkpt><trkpt lat="51.8988646287" lon="-1.7612705380"><ele>83.77</ele><time>2017-03-29T09:09:25Z</time></trkpt><trkpt lat="51.8986883573" lon="-1.7613287084"><ele>84.73</ele><time>2017-03-29T09:09:45Z</time></trkpt><trkpt lat="51.8984966632" lon="-1.7613513395"><ele>84.73</ele><time>2017-03-29T09:10:02Z</time></trkpt><trkpt lat="51.8983450346" lon="-1.7613459751"><ele>86.18</ele><time>2017-03-29T09:10:20Z</time></trkpt><trkpt lat="51.8983257562" lon="-1.7613696959"><ele>85.69</ele><time>2017-03-29T09:10:22Z</time></trkpt><trkpt lat="51.8982459605" lon="-1.7614920717"><ele>87.62</ele><time>2017-03-29T09:10:31Z</time></trkpt><trkpt lat="51.8982402608" lon="-1.7615175527"><ele>87.14</ele><time>2017-03-29T09:10:33Z</time></trkpt><trkpt lat="51.8982221559" lon="-1.7615259346"><ele>87.14</ele><time>2017-03-29T09:10:35Z</time></trkpt><trkpt lat="51.8981663324" lon="-1.7616369110"><ele>87.62</ele><time>2017-03-29T09:10:47Z</time></trkpt><trkpt lat="51.8980366644" lon="-1.7617325485"><ele>89.06</ele><time>2017-03-29T09:11:03Z</time></trkpt><trkpt lat="51.8980173860" lon="-1.7617462110"><ele>89.06</ele><time>2017-03-29T09:11:05Z</time></trkpt><trkpt lat="51.8978473172" lon="-1.7618410941"><ele>89.54</ele><time>2017-03-29T09:11:24Z</time></trkpt><trkpt lat="51.8978007976" lon="-1.7619695049"><ele>90.02</ele><time>2017-03-29T09:11:38Z</time></trkpt><trkpt lat="51.8977313954" lon="-1.7620175332"><ele>91.46</ele><time>2017-03-29T09:11:52Z</time></trkpt><trkpt lat="51.8976556230" lon="-1.7620632146"><ele>90.98</ele><time>2017-03-29T09:12:08Z</time></trkpt><trkpt lat="51.8975279666" lon="-1.7621621210"><ele>91.46</ele><time>2017-03-29T09:12:24Z</time></trkpt><trkpt lat="51.8973876536" lon="-1.7622440960"><ele>93.39</ele><time>2017-03-29T09:12:42Z</time></trkpt><trkpt lat="51.8972553033" lon="-1.7623176891"><ele>94.83</ele><time>2017-03-29T09:12:59Z</time></trkpt><trkpt lat="51.8971071951" lon="-1.7623907793"><ele>94.83</ele><time>2017-03-29T09:13:18Z</time></trkpt><trkpt lat="51.8969854061" lon="-1.7624688148"><ele>95.31</ele><time>2017-03-29T09:13:35Z</time></trkpt><trkpt lat="51.8969101366" lon="-1.7625363730"><ele>97.23</ele><time>2017-03-29T09:13:49Z</time></trkpt><trkpt lat="51.8967836536" lon="-1.7626424879"><ele>99.15</ele><time>2017-03-29T09:14:07Z</time></trkpt><trkpt lat="51.8966818973" lon="-1.7627092917"><ele>99.63</ele><time>2017-03-29T09:14:25Z</time></trkpt><trkpt lat="51.8965707533" lon="-1.7627642769"><ele>100.11</ele><time>2017-03-29T09:14:40Z</time></trkpt><trkpt lat="51.8964394927" lon="-1.7628870718"><ele>100.60</ele><time>2017-03-29T09:15:00Z</time></trkpt><trkpt lat="51.8963560928" lon="-1.7630090285"><ele>101.56</ele><time>2017-03-29T09:15:18Z</time></trkpt><trkpt lat="51.8963350542" lon="-1.7630343419"><ele>102.52</ele><time>2017-03-29T09:15:42Z</time></trkpt><trkpt lat="51.8962562643" lon="-1.7631537840"><ele>103.48</ele><time>2017-03-29T09:16:00Z</time></trkpt><trkpt lat="51.8962240778" lon="-1.7632022314"><ele>103.48</ele><time>2017-03-29T09:16:06Z</time></trkpt><trkpt lat="51.8960924819" lon="-1.7633984517"><ele>103.96</ele><time>2017-03-29T09:16:25Z</time></trkpt><trkpt lat="51.8960012868" lon="-1.7635690235"><ele>104.44</ele><time>2017-03-29T09:16:41Z</time></trkpt><trkpt lat="51.8959094211" lon="-1.7637654953"><ele>106.84</ele><time>2017-03-29T09:16:59Z</time></trkpt><trkpt lat="51.8958385102" lon="-1.7639785632"><ele>107.32</ele><time>2017-03-29T09:17:18Z</time></trkpt><trkpt lat="51.8957563676" lon="-1.7641588580"><ele>108.77</ele><time>2017-03-29T09:17:34Z</time></trkpt><trkpt lat="51.8956921622" lon="-1.7642991710"><ele>109.73</ele><time>2017-03-29T09:17:49Z</time></trkpt><trkpt lat="51.8956159707" lon="-1.7644755263"><ele>110.69</ele><time>2017-03-29T09:18:06Z</time></trkpt><trkpt lat="51.8955528550" lon="-1.7646390572"><ele>111.17</ele><time>2017-03-29T09:18:23Z</time></trkpt><trkpt lat="51.8955192436" lon="-1.7647367064"><ele>113.57</ele><time>2017-03-29T09:18:37Z</time></trkpt><trkpt lat="51.8954916671" lon="-1.7648216989"><ele>114.53</ele><time>2017-03-29T09:18:52Z</time></trkpt><trkpt lat="51.8954376038" lon="-1.7649643589"><ele>115.50</ele><time>2017-03-29T09:19:08Z</time></trkpt><trkpt lat="51.8953652680" lon="-1.7651858088"><ele>117.42</ele><time>2017-03-29T09:19:24Z</time></trkpt><trkpt lat="51.8953400385" lon="-1.7652983777"><ele>118.38</ele><time>2017-03-29T09:19:39Z</time></trkpt><trkpt lat="51.8953573890" lon="-1.7652689572"><ele>118.86</ele><time>2017-03-29T09:20:00Z</time></trkpt><trkpt lat="51.8953392841" lon="-1.7652563844"><ele>118.86</ele><time>2017-03-29T09:20:22Z</time></trkpt><trkpt lat="51.8953263760" lon="-1.7652960308"><ele>119.82</ele><time>2017-03-29T09:20:46Z</time></trkpt><trkpt lat="51.8953392003" lon="-1.7652937677"><ele>120.78</ele><time>2017-03-29T09:21:24Z</time></trkpt><trkpt lat="51.8953450676" lon="-1.7653034069"><ele>121.26</ele><time>2017-03-29T09:21:47Z</time></trkpt><trkpt lat="51.8953533657" lon="-1.7653376050"><ele>122.22</ele><time>2017-03-29T09:22:08Z</time></trkpt><trkpt lat="51.8952716421" lon="-1.7655262817"><ele>124.15</ele><time>2017-03-29T09:22:27Z</time></trkpt><trkpt lat="51.8951965403" lon="-1.7657064926"><ele>126.07</ele><time>2017-03-29T09:22:45Z</time></trkpt><trkpt lat="51.8951610848" lon="-1.7658529244"><ele>127.99</ele><time>2017-03-29T09:23:02Z</time></trkpt><trkpt lat="51.8950803671" lon="-1.7660114262"><ele>130.88</ele><time>2017-03-29T09:23:21Z</time></trkpt><trkpt lat="51.8950610049" lon="-1.7660119291"><ele>131.36</ele><time>2017-03-29T09:23:23Z</time></trkpt><trkpt lat="51.8949993141" lon="-1.7660417687"><ele>131.84</ele><time>2017-03-29T09:23:38Z</time></trkpt><trkpt lat="51.8949941173" lon="-1.7660771403"><ele>132.80</ele><time>2017-03-29T09:23:57Z</time></trkpt><trkpt lat="51.8947983161" lon="-1.7660426069"><ele>132.80</ele><time>2017-03-29T09:24:21Z</time></trkpt><trkpt lat="51.8945880979" lon="-1.7659816705"><ele>133.76</ele><time>2017-03-29T09:24:45Z</time></trkpt><trkpt lat="51.8944083061" lon="-1.7659506574"><ele>134.24</ele><time>2017-03-29T09:25:06Z</time></trkpt><trkpt lat="51.8941979203" lon="-1.7660089117"><ele>133.76</ele><time>2017-03-29T09:25:25Z</time></trkpt><trkpt lat="51.8940789811" lon="-1.7660333868"><ele>133.76</ele><time>2017-03-29T09:25:43Z</time></trkpt><trkpt lat="51.8939013686" lon="-1.7660721112"><ele>133.76</ele><time>2017-03-29T09:26:01Z</time></trkpt><trkpt lat="51.8937460519" lon="-1.7661317065"><ele>134.72</ele><time>2017-03-29T09:26:23Z</time></trkpt><trkpt lat="51.8935862929" lon="-1.7662092391"><ele>134.24</ele><time>2017-03-29T09:26:39Z</time></trkpt><trkpt lat="51.8933779188" lon="-1.7662918009"><ele>134.72</ele><time>2017-03-29T09:26:57Z</time></trkpt><trkpt lat="51.8932133820" lon="-1.7663714290"><ele>134.72</ele><time>2017-03-29T09:27:15Z</time></trkpt><trkpt lat="51.8930418883" lon="-1.7665357143"><ele>135.20</ele><time>2017-03-29T09:27:36Z</time></trkpt><trkpt lat="51.8929024972" lon="-1.7666951381"><ele>136.16</ele><time>2017-03-29T09:27:57Z</time></trkpt><trkpt lat="51.8927615136" lon="-1.7669188511"><ele>136.16</ele><time>2017-03-29T09:28:13Z</time></trkpt><trkpt lat="51.8926814664" lon="-1.7670006584"><ele>135.68</ele><time>2017-03-29T09:28:34Z</time></trkpt><trkpt lat="51.8926297501" lon="-1.7669869959"><ele>135.68</ele><time>2017-03-29T09:28:49Z</time></trkpt><trkpt lat="51.8924792111" lon="-1.7669720761"><ele>135.20</ele><time>2017-03-29T09:29:06Z</time></trkpt><trkpt lat="51.8923314381" lon="-1.7669610959"><ele>134.24</ele><time>2017-03-29T09:29:23Z</time></trkpt><trkpt lat="51.8923012633" lon="-1.7669719085"><ele>134.24</ele><time>2017-03-29T09:29:27Z</time></trkpt><trkpt lat="51.8921734393" lon="-1.7669499479"><ele>134.24</ele><time>2017-03-29T09:29:41Z</time></trkpt><trkpt lat="51.8919682503" lon="-1.7669850681"><ele>134.24</ele><time>2017-03-29T09:30:01Z</time></trkpt><trkpt lat="51.8919410091" lon="-1.7669851519"><ele>134.24</ele><time>2017-03-29T09:30:04Z</time></trkpt><trkpt lat="51.8917714432" lon="-1.7670318391"><ele>133.28</ele><time>2017-03-29T09:30:24Z</time></trkpt><trkpt lat="51.8915939145" lon="-1.7670554761"><ele>132.80</ele><time>2017-03-29T09:30:42Z</time></trkpt><trkpt lat="51.8914500810" lon="-1.7670820467"><ele>132.32</ele><time>2017-03-29T09:30:59Z</time></trkpt><trkpt lat="51.8912940100" lon="-1.7670818791"><ele>130.88</ele><time>2017-03-29T09:31:17Z</time></trkpt><trkpt lat="51.8911285512" lon="-1.7671043426"><ele>130.88</ele><time>2017-03-29T09:31:34Z</time></trkpt><trkpt lat="51.8909432273" lon="-1.7671138141"><ele>129.92</ele><time>2017-03-29T09:31:52Z</time></trkpt><trkpt lat="51.8907980528" lon="-1.7671260517"><ele>129.92</ele><time>2017-03-29T09:32:08Z</time></trkpt><trkpt lat="51.8907286506" lon="-1.7671247944"><ele>130.40</ele><time>2017-03-29T09:32:15Z</time></trkpt><trkpt lat="51.8905558996" lon="-1.7671281472"><ele>128.47</ele><time>2017-03-29T09:32:32Z</time></trkpt><trkpt lat="51.8903564103" lon="-1.7671379540"><ele>127.03</ele><time>2017-03-29T09:32:51Z</time></trkpt><trkpt lat="51.8901510537" lon="-1.7670646962"><ele>125.59</ele><time>2017-03-29T09:33:13Z</time></trkpt><trkpt lat="51.8900807295" lon="-1.7670418136"><ele>125.59</ele><time>2017-03-29T09:33:36Z</time></trkpt><trkpt lat="51.8900772091" lon="-1.7670413107"><ele>126.07</ele><time>2017-03-29T09:34:03Z</time></trkpt><trkpt lat="51.8900209665" lon="-1.7670291569"><ele>125.11</ele><time>2017-03-29T09:34:23Z</time></trkpt><trkpt lat="51.8899178691" lon="-1.7669755127"><ele>124.63</ele><time>2017-03-29T09:34:32Z</time></trkpt><trkpt lat="51.8897630554" lon="-1.7668675538"><ele>123.19</ele><time>2017-03-29T09:34:48Z</time></trkpt><trkpt lat="51.8897273485" lon="-1.7668228783"><ele>123.67</ele><time>2017-03-29T09:34:52Z</time></trkpt><trkpt lat="51.8896629754" lon="-1.7667689826"><ele>122.71</ele><time>2017-03-29T09:34:58Z</time></trkpt><trkpt lat="51.8895253446" lon="-1.7666816432"><ele>120.30</ele><time>2017-03-29T09:35:13Z</time></trkpt><trkpt lat="51.8894854467" lon="-1.7666504625"><ele>120.30</ele><time>2017-03-29T09:35:18Z</time></trkpt><trkpt lat="51.8893634900" lon="-1.7665903643"><ele>119.82</ele><time>2017-03-29T09:35:31Z</time></trkpt><trkpt lat="51.8892168906" lon="-1.7664794717"><ele>117.90</ele><time>2017-03-29T09:35:47Z</time></trkpt><trkpt lat="51.8891942594" lon="-1.7664678209"><ele>117.90</ele><time>2017-03-29T09:35:49Z</time></trkpt><trkpt lat="51.8891024776" lon="-1.7663591914"><ele>117.90</ele><time>2017-03-29T09:36:00Z</time></trkpt><trkpt lat="51.8890754879" lon="-1.7663359735"><ele>116.46</ele><time>2017-03-29T09:36:03Z</time></trkpt><trkpt lat="51.8889574707" lon="-1.7662672419"><ele>116.94</ele><time>2017-03-29T09:36:19Z</time></trkpt><trkpt lat="51.8888715561" lon="-1.7662362289"><ele>117.42</ele><time>2017-03-29T09:36:41Z</time></trkpt><trkpt lat="51.8888180796" lon="-1.7663626280"><ele>116.46</ele><time>2017-03-29T09:36:57Z</time></trkpt><trkpt lat="51.8887667824" lon="-1.7664204631"><ele>116.46</ele><time>2017-03-29T09:37:03Z</time></trkpt><trkpt lat="51.8887149822" lon="-1.7665400729"><ele>116.94</ele><time>2017-03-29T09:37:13Z</time></trkpt><trkpt lat="51.8885015789" lon="-1.7666863371"><ele>115.98</ele><time>2017-03-29T09:37:31Z</time></trkpt><trkpt lat="51.8884700630" lon="-1.7669007462"><ele>115.98</ele><time>2017-03-29T09:37:47Z</time></trkpt><trkpt lat="51.8884541374" lon="-1.7670274805"><ele>115.01</ele><time>2017-03-29T09:37:57Z</time></trkpt><trkpt lat="51.8882950488" lon="-1.7671419773"><ele>115.01</ele><time>2017-03-29T09:38:11Z</time></trkpt><trkpt lat="51.8882176839" lon="-1.7671715654"><ele>115.01</ele><time>2017-03-29T09:38:16Z</time></trkpt><trkpt lat="51.8880946375" lon="-1.7672551330"><ele>115.01</ele><time>2017-03-29T09:38:30Z</time></trkpt><trkpt lat="51.8879837450" lon="-1.7674073484"><ele>114.53</ele><time>2017-03-29T09:38:44Z</time></trkpt><trkpt lat="51.8879475351" lon="-1.7675642576"><ele>114.53</ele><time>2017-03-29T09:39:00Z</time></trkpt><trkpt lat="51.8877769634" lon="-1.7676830292"><ele>114.53</ele><time>2017-03-29T09:39:18Z</time></trkpt><trkpt lat="51.8877239060" lon="-1.7677813489"><ele>114.05</ele><time>2017-03-29T09:39:31Z</time></trkpt><trkpt lat="51.8875864428" lon="-1.7678857874"><ele>114.05</ele><time>2017-03-29T09:39:46Z</time></trkpt><trkpt lat="51.8874717783" lon="-1.7680277769"><ele>113.57</ele><time>2017-03-29T09:40:01Z</time></trkpt><trkpt lat="51.8874331377" lon="-1.7680826783"><ele>113.09</ele><time>2017-03-29T09:40:06Z</time></trkpt><trkpt lat="51.8873535097" lon="-1.7682390846"><ele>114.05</ele><time>2017-03-29T09:40:21Z</time></trkpt><trkpt lat="51.8872402702" lon="-1.7684205528"><ele>113.09</ele><time>2017-03-29T09:40:36Z</time></trkpt><trkpt lat="51.8872164655" lon="-1.7685598601"><ele>113.57</ele><time>2017-03-29T09:40:50Z</time></trkpt><trkpt lat="51.8872257695" lon="-1.7686167732"><ele>113.57</ele><time>2017-03-29T09:41:02Z</time></trkpt><trkpt lat="51.8872427009" lon="-1.7685984168"><ele>113.09</ele><time>2017-03-29T09:41:29Z</time></trkpt><trkpt lat="51.8873013742" lon="-1.7687505484"><ele>114.05</ele><time>2017-03-29T09:41:46Z</time></trkpt><trkpt lat="51.8873300403" lon="-1.7689768597"><ele>114.53</ele><time>2017-03-29T09:41:59Z</time></trkpt><trkpt lat="51.8872958422" lon="-1.7692656163"><ele>114.05</ele><time>2017-03-29T09:42:16Z</time></trkpt><trkpt lat="51.8873011228" lon="-1.7695002258"><ele>114.05</ele><time>2017-03-29T09:42:32Z</time></trkpt><trkpt lat="51.8873000331" lon="-1.7696744855"><ele>115.01</ele><time>2017-03-29T09:42:48Z</time></trkpt><trkpt lat="51.8872700259" lon="-1.7700096779"><ele>114.53</ele><time>2017-03-29T09:43:10Z</time></trkpt><trkpt lat="51.8872936629" lon="-1.7701696046"><ele>115.01</ele><time>2017-03-29T09:43:24Z</time></trkpt><trkpt lat="51.8872903939" lon="-1.7703478877"><ele>115.50</ele><time>2017-03-29T09:43:38Z</time></trkpt><trkpt lat="51.8872601353" lon="-1.7705894541"><ele>115.50</ele><time>2017-03-29T09:43:52Z</time></trkpt><trkpt lat="51.8872457184" lon="-1.7707347125"><ele>115.98</ele><time>2017-03-29T09:44:06Z</time></trkpt><trkpt lat="51.8872258533" lon="-1.7709440086"><ele>115.98</ele><time>2017-03-29T09:44:19Z</time></trkpt><trkpt lat="51.8871989474" lon="-1.7711357865"><ele>115.50</ele><time>2017-03-29T09:44:32Z</time></trkpt><trkpt lat="51.8871718738" lon="-1.7713721562"><ele>115.98</ele><time>2017-03-29T09:44:47Z</time></trkpt><trkpt lat="51.8871500809" lon="-1.7715697177"><ele>116.46</ele><time>2017-03-29T09:45:01Z</time></trkpt><trkpt lat="51.8871354125" lon="-1.7717296444"><ele>116.46</ele><time>2017-03-29T09:45:13Z</time></trkpt><trkpt lat="51.8871282879" lon="-1.7719242722"><ele>116.94</ele><time>2017-03-29T09:45:26Z</time></trkpt><trkpt lat="51.8871322274" lon="-1.7721121944"><ele>117.90</ele><time>2017-03-29T09:45:41Z</time></trkpt><trkpt lat="51.8871230073" lon="-1.7722059879"><ele>118.86</ele><time>2017-03-29T09:45:54Z</time></trkpt><trkpt lat="51.8871194031" lon="-1.7722170521"><ele>119.34</ele><time>2017-03-29T09:46:11Z</time></trkpt><trkpt lat="51.8871112727" lon="-1.7723779846"><ele>118.86</ele><time>2017-03-29T09:46:26Z</time></trkpt><trkpt lat="51.8870664295" lon="-1.7725980096"><ele>119.82</ele><time>2017-03-29T09:46:41Z</time></trkpt><trkpt lat="51.8870306388" lon="-1.7727990914"><ele>119.82</ele><time>2017-03-29T09:46:55Z</time></trkpt><trkpt lat="51.8869843706" lon="-1.7730324436"><ele>119.82</ele><time>2017-03-29T09:47:11Z</time></trkpt><trkpt lat="51.8869557045" lon="-1.7732504569"><ele>119.82</ele><time>2017-03-29T09:47:26Z</time></trkpt><trkpt lat="51.8869339954" lon="-1.7734462582"><ele>119.82</ele><time>2017-03-29T09:47:38Z</time></trkpt><trkpt lat="51.8869106099" lon="-1.7737060972"><ele>120.30</ele><time>2017-03-29T09:47:54Z</time></trkpt><trkpt lat="51.8868920021" lon="-1.7739816103"><ele>119.34</ele><time>2017-03-29T09:48:10Z</time></trkpt><trkpt lat="51.8868992105" lon="-1.7741923314"><ele>120.30</ele><time>2017-03-29T09:48:26Z</time></trkpt><trkpt lat="51.8868873082" lon="-1.7744416092"><ele>119.82</ele><time>2017-03-29T09:48:41Z</time></trkpt><trkpt lat="51.8868966959" lon="-1.7745551001"><ele>120.30</ele><time>2017-03-29T09:48:48Z</time></trkpt><trkpt lat="51.8869220093" lon="-1.7747911345"><ele>120.30</ele><time>2017-03-29T09:49:03Z</time></trkpt><trkpt lat="51.8869546149" lon="-1.7750297673"><ele>120.30</ele><time>2017-03-29T09:49:19Z</time></trkpt><trkpt lat="51.8869685289" lon="-1.7751139216"><ele>120.30</ele><time>2017-03-29T09:49:25Z</time></trkpt><trkpt lat="51.8869957700" lon="-1.7752611078"><ele>120.78</ele><time>2017-03-29T09:49:35Z</time></trkpt><trkpt lat="51.8870391883" lon="-1.7754545622"><ele>120.30</ele><time>2017-03-29T09:49:48Z</time></trkpt><trkpt lat="51.8870767392" lon="-1.7755540553"><ele>120.78</ele><time>2017-03-29T09:50:01Z</time></trkpt><trkpt lat="51.8871135358" lon="-1.7757313326"><ele>121.74</ele><time>2017-03-29T09:50:17Z</time></trkpt><trkpt lat="51.8871580437" lon="-1.7759038322"><ele>122.22</ele><time>2017-03-29T09:50:28Z</time></trkpt><trkpt lat="51.8871782441" lon="-1.7759630084"><ele>122.22</ele><time>2017-03-29T09:50:32Z</time></trkpt><trkpt lat="51.8872535136" lon="-1.7761359271"><ele>122.22</ele><time>2017-03-29T09:50:47Z</time></trkpt><trkpt lat="51.8873339798" lon="-1.7763803434"><ele>123.67</ele><time>2017-03-29T09:51:05Z</time></trkpt><trkpt lat="51.8874285277" lon="-1.7765702773"><ele>123.19</ele><time>2017-03-29T09:51:22Z</time></trkpt><trkpt lat="51.8875560164" lon="-1.7768439464"><ele>124.63</ele><time>2017-03-29T09:51:45Z</time></trkpt><trkpt lat="51.8876648135" lon="-1.7770638037"><ele>124.63</ele><time>2017-03-29T09:52:04Z</time></trkpt><trkpt lat="51.8877692521" lon="-1.7772670649"><ele>125.11</ele><time>2017-03-29T09:52:22Z</time></trkpt><trkpt lat="51.8878804799" lon="-1.7775221262"><ele>124.15</ele><time>2017-03-29T09:52:40Z</time></trkpt><trkpt lat="51.8879988324" lon="-1.7777429055"><ele>126.55</ele><time>2017-03-29T09:52:59Z</time></trkpt><trkpt lat="51.8881054502" lon="-1.7779237032"><ele>127.51</ele><time>2017-03-29T09:53:15Z</time></trkpt><trkpt lat="51.8881127425" lon="-1.7779332586"><ele>127.51</ele><time>2017-03-29T09:53:16Z</time></trkpt><trkpt lat="51.8882087991" lon="-1.7780840490"><ele>126.07</ele><time>2017-03-29T09:53:31Z</time></trkpt><trkpt lat="51.8883069512" lon="-1.7783131264"><ele>127.03</ele><time>2017-03-29T09:53:51Z</time></trkpt><trkpt lat="51.8883885909" lon="-1.7785660923"><ele>127.51</ele><time>2017-03-29T09:54:11Z</time></trkpt><trkpt lat="51.8884383794" lon="-1.7785945907"><ele>128.47</ele><time>2017-03-29T09:54:23Z</time></trkpt><trkpt lat="51.8884874973" lon="-1.7787203193"><ele>128.47</ele><time>2017-03-29T09:54:35Z</time></trkpt><trkpt lat="51.8885604199" lon="-1.7789011169"><ele>128.95</ele><time>2017-03-29T09:54:48Z</time></trkpt><trkpt lat="51.8886194285" lon="-1.7790353950"><ele>128.95</ele><time>2017-03-29T09:55:00Z</time></trkpt><trkpt lat="51.8887164071" lon="-1.7791936453"><ele>129.92</ele><time>2017-03-29T09:55:16Z</time></trkpt><trkpt lat="51.8888042495" lon="-1.7793984152"><ele>128.95</ele><time>2017-03-29T09:55:32Z</time></trkpt><trkpt lat="51.8888578098" lon="-1.7796101421"><ele>127.99</ele><time>2017-03-29T09:55:47Z</time></trkpt><trkpt lat="51.8888830394" lon="-1.7796666361"><ele>127.03</ele><time>2017-03-29T09:56:02Z</time></trkpt><trkpt lat="51.8889933452" lon="-1.7797856592"><ele>127.99</ele><time>2017-03-29T09:56:16Z</time></trkpt><trkpt lat="51.8890047446" lon="-1.7798167560"><ele>129.43</ele><time>2017-03-29T09:56:34Z</time></trkpt><trkpt lat="51.8889925908" lon="-1.7799579073"><ele>129.43</ele><time>2017-03-29T09:56:56Z</time></trkpt><trkpt lat="51.8890595622" lon="-1.7801626772"><ele>129.43</ele><time>2017-03-29T09:57:15Z</time></trkpt><trkpt lat="51.8890961073" lon="-1.7804688681"><ele>129.92</ele><time>2017-03-29T09:57:33Z</time></trkpt><trkpt lat="51.8891128711" lon="-1.7805688642"><ele>130.88</ele><time>2017-03-29T09:57:54Z</time></trkpt><trkpt lat="51.8890891504" lon="-1.7806874681"><ele>131.84</ele><time>2017-03-29T09:58:09Z</time></trkpt><trkpt lat="51.8890979514" lon="-1.7808022164"><ele>131.84</ele><time>2017-03-29T09:58:27Z</time></trkpt><trkpt lat="51.8891075067" lon="-1.7811260931"><ele>131.36</ele><time>2017-03-29T09:58:46Z</time></trkpt><trkpt lat="51.8891331553" lon="-1.7813021969"><ele>131.84</ele><time>2017-03-29T09:59:06Z</time></trkpt><trkpt lat="51.8891558703" lon="-1.7814480420"><ele>131.36</ele><time>2017-03-29T09:59:19Z</time></trkpt><trkpt lat="51.8891919963" lon="-1.7815744411"><ele>131.36</ele><time>2017-03-29T09:59:36Z</time></trkpt><trkpt lat="51.8892396893" lon="-1.7817205377"><ele>131.84</ele><time>2017-03-29T09:59:53Z</time></trkpt><trkpt lat="51.8892999552" lon="-1.7819082923"><ele>132.80</ele><time>2017-03-29T10:00:13Z</time></trkpt><trkpt lat="51.8894913141" lon="-1.7820814624"><ele>130.40</ele><time>2017-03-29T10:00:31Z</time></trkpt><trkpt lat="51.8895459641" lon="-1.7821522057"><ele>127.99</ele><time>2017-03-29T10:00:50Z</time></trkpt><trkpt lat="51.8896636460" lon="-1.7822475918"><ele>127.51</ele><time>2017-03-29T10:01:07Z</time></trkpt><trkpt lat="51.8898130953" lon="-1.7823206820"><ele>127.51</ele><time>2017-03-29T10:01:20Z</time></trkpt><trkpt lat="51.8900296837" lon="-1.7824100330"><ele>127.99</ele><time>2017-03-29T10:01:32Z</time></trkpt><trkpt lat="51.8900861777" lon="-1.7825496756"><ele>127.51</ele><time>2017-03-29T10:01:46Z</time></trkpt><trkpt lat="51.8901200406" lon="-1.7825884838"><ele>127.03</ele><time>2017-03-29T10:02:06Z</time></trkpt><trkpt lat="51.8902937137" lon="-1.7826041579"><ele>127.03</ele><time>2017-03-29T10:02:26Z</time></trkpt><trkpt lat="51.8903549854" lon="-1.7825744860"><ele>126.55</ele><time>2017-03-29T10:02:49Z</time></trkpt><trkpt lat="51.8903512135" lon="-1.7825748213"><ele>127.51</ele><time>2017-03-29T10:03:09Z</time></trkpt><trkpt lat="51.8903481122" lon="-1.7825666070"><ele>127.03</ele><time>2017-03-29T10:03:39Z</time></trkpt><trkpt lat="51.8903537281" lon="-1.7825535312"><ele>127.51</ele><time>2017-03-29T10:04:03Z</time></trkpt><trkpt lat="51.8903568294" lon="-1.7825322412"><ele>127.51</ele><time>2017-03-29T10:04:32Z</time></trkpt><trkpt lat="51.8903574999" lon="-1.7825086880"><ele>127.99</ele><time>2017-03-29T10:05:02Z</time></trkpt><trkpt lat="51.8903678935" lon="-1.7825388629"><ele>127.51</ele><time>2017-03-29T10:05:27Z</time></trkpt><trkpt lat="51.8903728388" lon="-1.7825713009"><ele>127.99</ele><time>2017-03-29T10:05:57Z</time></trkpt><trkpt lat="51.8903745152" lon="-1.7825718876"><ele>127.99</ele><time>2017-03-29T10:06:19Z</time></trkpt><trkpt lat="51.8903864175" lon="-1.7825899087"><ele>127.99</ele><time>2017-03-29T10:06:50Z</time></trkpt><trkpt lat="51.8903998286" lon="-1.7825889867"><ele>128.47</ele><time>2017-03-29T10:07:13Z</time></trkpt><trkpt lat="51.8903916981" lon="-1.7825846281"><ele>128.47</ele><time>2017-03-29T10:07:46Z</time></trkpt><trkpt lat="51.8904024269" lon="-1.7825868074"><ele>128.47</ele><time>2017-03-29T10:08:13Z</time></trkpt><trkpt lat="51.8903884292" lon="-1.7825606558"><ele>128.95</ele><time>2017-03-29T10:08:43Z</time></trkpt><trkpt lat="51.8903775327" lon="-1.7825599853"><ele>128.95</ele><time>2017-03-29T10:08:58Z</time></trkpt><trkpt lat="51.8903740123" lon="-1.7825653497"><ele>128.47</ele><time>2017-03-29T10:09:32Z</time></trkpt><trkpt lat="51.8903758563" lon="-1.7825542856"><ele>128.95</ele><time>2017-03-29T10:09:52Z</time></trkpt><trkpt lat="51.8903817236" lon="-1.7825827841"><ele>128.47</ele><time>2017-03-29T10:10:12Z</time></trkpt><trkpt lat="51.8903870042" lon="-1.7825858854"><ele>129.43</ele><time>2017-03-29T10:10:25Z</time></trkpt><trkpt lat="51.8903875910" lon="-1.7825920042"><ele>128.47</ele><time>2017-03-29T10:10:47Z</time></trkpt><trkpt lat="51.8903843220" lon="-1.7825972009"><ele>128.95</ele><time>2017-03-29T10:11:07Z</time></trkpt><trkpt lat="51.8903463520" lon="-1.7824865598"><ele>128.95</ele><time>2017-03-29T10:11:20Z</time></trkpt><trkpt lat="51.8904317636" lon="-1.7823749129"><ele>129.92</ele><time>2017-03-29T10:11:34Z</time></trkpt><trkpt lat="51.8904538080" lon="-1.7823623400"><ele>130.40</ele><time>2017-03-29T10:11:36Z</time></trkpt><trkpt lat="51.8905298319" lon="-1.7822431494"><ele>130.88</ele><time>2017-03-29T10:11:51Z</time></trkpt><trkpt lat="51.8905924447" lon="-1.7821328435"><ele>132.80</ele><time>2017-03-29T10:12:07Z</time></trkpt><trkpt lat="51.8906520400" lon="-1.7819756828"><ele>133.28</ele><time>2017-03-29T10:12:26Z</time></trkpt><trkpt lat="51.8907346018" lon="-1.7819265649"><ele>134.24</ele><time>2017-03-29T10:12:34Z</time></trkpt><trkpt lat="51.8908769265" lon="-1.7818104755"><ele>135.20</ele><time>2017-03-29T10:12:50Z</time></trkpt><trkpt lat="51.8909765873" lon="-1.7816886865"><ele>136.16</ele><time>2017-03-29T10:13:06Z</time></trkpt><trkpt lat="51.8910803553" lon="-1.7816022690"><ele>137.13</ele><time>2017-03-29T10:13:21Z</time></trkpt><trkpt lat="51.8911824469" lon="-1.7815015186"><ele>138.09</ele><time>2017-03-29T10:13:35Z</time></trkpt><trkpt lat="51.8912439700" lon="-1.7814338766"><ele>138.57</ele><time>2017-03-29T10:13:52Z</time></trkpt><trkpt lat="51.8912660144" lon="-1.7813554220"><ele>139.53</ele><time>2017-03-29T10:14:11Z</time></trkpt><trkpt lat="51.8914468959" lon="-1.7812061403"><ele>140.01</ele><time>2017-03-29T10:14:26Z</time></trkpt><trkpt lat="51.8915481493" lon="-1.7811098322"><ele>140.97</ele><time>2017-03-29T10:14:39Z</time></trkpt><trkpt lat="51.8917445373" lon="-1.7809958383"><ele>141.45</ele><time>2017-03-29T10:14:56Z</time></trkpt><trkpt lat="51.8918830063" lon="-1.7808780726"><ele>142.89</ele><time>2017-03-29T10:15:14Z</time></trkpt><trkpt lat="51.8919867743" lon="-1.7807794176"><ele>143.85</ele><time>2017-03-29T10:15:29Z</time></trkpt><trkpt lat="51.8920348026" lon="-1.7807043158"><ele>144.82</ele><time>2017-03-29T10:15:44Z</time></trkpt><trkpt lat="51.8920510635" lon="-1.7807025556"><ele>144.82</ele><time>2017-03-29T10:16:00Z</time></trkpt><trkpt lat="51.8921552505" lon="-1.7806579638"><ele>145.78</ele><time>2017-03-29T10:16:15Z</time></trkpt><trkpt lat="51.8921846710" lon="-1.7806410324"><ele>145.78</ele><time>2017-03-29T10:16:18Z</time></trkpt><trkpt lat="51.8923238106" lon="-1.7805457301"><ele>146.74</ele><time>2017-03-29T10:16:34Z</time></trkpt><trkpt lat="51.8924182747" lon="-1.7804415431"><ele>147.22</ele><time>2017-03-29T10:16:48Z</time></trkpt><trkpt lat="51.8925278261" lon="-1.7803579755"><ele>148.18</ele><time>2017-03-29T10:17:01Z</time></trkpt><trkpt lat="51.8925629463" lon="-1.7803249508"><ele>149.14</ele><time>2017-03-29T10:17:06Z</time></trkpt><trkpt lat="51.8926547281" lon="-1.7802444845"><ele>149.14</ele><time>2017-03-29T10:17:19Z</time></trkpt><trkpt lat="51.8927524611" lon="-1.7801543791"><ele>151.06</ele><time>2017-03-29T10:17:34Z</time></trkpt><trkpt lat="51.8928199355" lon="-1.7800786067"><ele>151.06</ele><time>2017-03-29T10:17:47Z</time></trkpt><trkpt lat="51.8929271400" lon="-1.7800030019"><ele>152.03</ele><time>2017-03-29T10:18:01Z</time></trkpt><trkpt lat="51.8930569757" lon="-1.7799203563"><ele>153.95</ele><time>2017-03-29T10:18:19Z</time></trkpt><trkpt lat="51.8931665272" lon="-1.7798410635"><ele>154.43</ele><time>2017-03-29T10:18:34Z</time></trkpt><trkpt lat="51.8932757434" lon="-1.7797629442"><ele>154.91</ele><time>2017-03-29T10:18:50Z</time></trkpt><trkpt lat="51.8933761586" lon="-1.7796957213"><ele>155.39</ele><time>2017-03-29T10:19:04Z</time></trkpt><trkpt lat="51.8934619054" lon="-1.7796336114"><ele>156.83</ele><time>2017-03-29T10:19:16Z</time></trkpt><trkpt lat="51.8935665116" lon="-1.7795466073"><ele>157.31</ele><time>2017-03-29T10:19:31Z</time></trkpt><trkpt lat="51.8936057389" lon="-1.7795155104"><ele>157.31</ele><time>2017-03-29T10:19:36Z</time></trkpt><trkpt lat="51.8937195651" lon="-1.7794254050"><ele>158.27</ele><time>2017-03-29T10:19:52Z</time></trkpt><trkpt lat="51.8938245066" lon="-1.7793515604"><ele>159.24</ele><time>2017-03-29T10:20:06Z</time></trkpt><trkpt lat="51.8939369917" lon="-1.7792791408"><ele>159.24</ele><time>2017-03-29T10:20:19Z</time></trkpt><trkpt lat="51.8940472975" lon="-1.7791819945"><ele>161.16</ele><time>2017-03-29T10:20:36Z</time></trkpt><trkpt lat="51.8941350561" lon="-1.7791163642"><ele>161.16</ele><time>2017-03-29T10:20:51Z</time></trkpt><trkpt lat="51.8941531610" lon="-1.7791231535"><ele>161.64</ele><time>2017-03-29T10:21:04Z</time></trkpt><trkpt lat="51.8942379020" lon="-1.7790468782"><ele>162.12</ele><time>2017-03-29T10:21:16Z</time></trkpt><trkpt lat="51.8943632115" lon="-1.7789717764"><ele>162.60</ele><time>2017-03-29T10:21:32Z</time></trkpt><trkpt lat="51.8944813963" lon="-1.7789302859"><ele>163.56</ele><time>2017-03-29T10:21:44Z</time></trkpt><trkpt lat="51.8945855834" lon="-1.7788576987"><ele>164.04</ele><time>2017-03-29T10:21:58Z</time></trkpt><trkpt lat="51.8946917821" lon="-1.7788015399"><ele>165.00</ele><time>2017-03-29T10:22:12Z</time></trkpt><trkpt lat="51.8947699852" lon="-1.7787639890"><ele>165.96</ele><time>2017-03-29T10:22:24Z</time></trkpt><trkpt lat="51.8948947079" lon="-1.7787137814"><ele>165.96</ele><time>2017-03-29T10:22:38Z</time></trkpt><trkpt lat="51.8950149883" lon="-1.7786835227"><ele>166.93</ele><time>2017-03-29T10:22:52Z</time></trkpt><trkpt lat="51.8951344304" lon="-1.7786388472"><ele>167.41</ele><time>2017-03-29T10:23:06Z</time></trkpt><trkpt lat="51.8952366896" lon="-1.7786275316"><ele>167.89</ele><time>2017-03-29T10:23:18Z</time></trkpt><trkpt lat="51.8953377753" lon="-1.7786333151"><ele>168.85</ele><time>2017-03-29T10:23:33Z</time></trkpt><trkpt lat="51.8954185769" lon="-1.7786458042"><ele>169.33</ele><time>2017-03-29T10:23:42Z</time></trkpt><trkpt lat="51.8954396993" lon="-1.7786490731"><ele>168.85</ele><time>2017-03-29T10:23:44Z</time></trkpt><trkpt lat="51.8954907451" lon="-1.7786716204"><ele>169.33</ele><time>2017-03-29T10:23:51Z</time></trkpt><trkpt lat="51.8956229277" lon="-1.7787262704"><ele>170.29</ele><time>2017-03-29T10:24:07Z</time></trkpt><trkpt lat="51.8956653401" lon="-1.7787397653"><ele>170.77</ele><time>2017-03-29T10:24:12Z</time></trkpt><trkpt lat="51.8957850337" lon="-1.7787833512"><ele>171.73</ele><time>2017-03-29T10:24:27Z</time></trkpt><trkpt lat="51.8959074933" lon="-1.7788261827"><ele>173.17</ele><time>2017-03-29T10:24:42Z</time></trkpt><trkpt lat="51.8959836010" lon="-1.7788577825"><ele>173.66</ele><time>2017-03-29T10:24:51Z</time></trkpt><trkpt lat="51.8960245885" lon="-1.7788760550"><ele>174.62</ele><time>2017-03-29T10:24:56Z</time></trkpt><trkpt lat="51.8961514067" lon="-1.7789100856"><ele>175.10</ele><time>2017-03-29T10:25:12Z</time></trkpt><trkpt lat="51.8961737864" lon="-1.7789274361"><ele>176.06</ele><time>2017-03-29T10:25:15Z</time></trkpt><trkpt lat="51.8962923903" lon="-1.7789392546"><ele>177.02</ele><time>2017-03-29T10:25:29Z</time></trkpt><trkpt lat="51.8964273389" lon="-1.7789551802"><ele>177.98</ele><time>2017-03-29T10:25:45Z</time></trkpt><trkpt lat="51.8965283409" lon="-1.7789659090"><ele>178.46</ele><time>2017-03-29T10:25:59Z</time></trkpt><trkpt lat="51.8966130819" lon="-1.7789580300"><ele>179.42</ele><time>2017-03-29T10:26:09Z</time></trkpt><trkpt lat="51.8966979906" lon="-1.7789667472"><ele>179.42</ele><time>2017-03-29T10:26:19Z</time></trkpt><trkpt lat="51.8968270719" lon="-1.7789423559"><ele>179.90</ele><time>2017-03-29T10:26:32Z</time></trkpt><trkpt lat="51.8969419040" lon="-1.7789290287"><ele>181.83</ele><time>2017-03-29T10:26:47Z</time></trkpt><trkpt lat="51.8969598413" lon="-1.7789286096"><ele>181.83</ele><time>2017-03-29T10:26:49Z</time></trkpt><trkpt lat="51.8970276508" lon="-1.7789602093"><ele>182.31</ele><time>2017-03-29T10:26:57Z</time></trkpt><trkpt lat="51.8971436564" lon="-1.7789934017"><ele>182.79</ele><time>2017-03-29T10:27:10Z</time></trkpt><trkpt lat="51.8972530402" lon="-1.7789593711"><ele>184.23</ele><time>2017-03-29T10:27:22Z</time></trkpt><trkpt lat="51.8972743303" lon="-1.7789834272"><ele>184.23</ele><time>2017-03-29T10:27:35Z</time></trkpt><trkpt lat="51.8972936925" lon="-1.7789578624"><ele>184.23</ele><time>2017-03-29T10:27:49Z</time></trkpt><trkpt lat="51.8973203469" lon="-1.7789829243"><ele>185.19</ele><time>2017-03-29T10:28:04Z</time></trkpt><trkpt lat="51.8973654415" lon="-1.7790165357"><ele>185.19</ele><time>2017-03-29T10:28:29Z</time></trkpt><trkpt lat="51.8974244501" lon="-1.7790346406"><ele>186.15</ele><time>2017-03-29T10:28:35Z</time></trkpt><trkpt lat="51.8975391146" lon="-1.7790190503"><ele>186.63</ele><time>2017-03-29T10:28:46Z</time></trkpt><trkpt lat="51.8976587243" lon="-1.7790511530"><ele>186.15</ele><time>2017-03-29T10:28:55Z</time></trkpt><trkpt lat="51.8978292122" lon="-1.7790855188"><ele>186.15</ele><time>2017-03-29T10:29:08Z</time></trkpt><trkpt lat="51.8978598062" lon="-1.7790862732"><ele>185.67</ele><time>2017-03-29T10:29:10Z</time></trkpt><trkpt lat="51.8980901409" lon="-1.7791068926"><ele>184.71</ele><time>2017-03-29T10:29:26Z</time></trkpt><trkpt lat="51.8982457090" lon="-1.7791451979"><ele>184.23</ele><time>2017-03-29T10:29:39Z</time></trkpt><trkpt lat="51.8983404245" lon="-1.7791667394"><ele>185.19</ele><time>2017-03-29T10:29:47Z</time></trkpt><trkpt lat="51.8984068930" lon="-1.7791731097"><ele>184.23</ele><time>2017-03-29T10:29:53Z</time></trkpt><trkpt lat="51.8985257484" lon="-1.7792151868"><ele>185.19</ele><time>2017-03-29T10:30:08Z</time></trkpt><trkpt lat="51.8986359704" lon="-1.7792301904"><ele>185.19</ele><time>2017-03-29T10:30:22Z</time></trkpt><trkpt lat="51.8986487947" lon="-1.7792438529"><ele>185.67</ele><time>2017-03-29T10:30:24Z</time></trkpt><trkpt lat="51.8987015169" lon="-1.7792322859"><ele>186.15</ele><time>2017-03-29T10:30:30Z</time></trkpt><trkpt lat="51.8987549935" lon="-1.7792047095"><ele>185.67</ele><time>2017-03-29T10:30:35Z</time></trkpt><trkpt lat="51.8988787942" lon="-1.7791537475"><ele>186.63</ele><time>2017-03-29T10:30:48Z</time></trkpt><trkpt lat="51.8988844100" lon="-1.7791571002"><ele>186.15</ele><time>2017-03-29T10:30:49Z</time></trkpt><trkpt lat="51.8990013376" lon="-1.7792729381"><ele>186.15</ele><time>2017-03-29T10:31:03Z</time></trkpt><trkpt lat="51.8990113959" lon="-1.7792794760"><ele>186.63</ele><time>2017-03-29T10:31:05Z</time></trkpt><trkpt lat="51.8990281597" lon="-1.7792965751"><ele>186.63</ele><time>2017-03-29T10:31:07Z</time></trkpt><trkpt lat="51.8991633598" lon="-1.7793862615"><ele>187.11</ele><time>2017-03-29T10:31:22Z</time></trkpt><trkpt lat="51.8992991466" lon="-1.7794608604"><ele>188.08</ele><time>2017-03-29T10:31:36Z</time></trkpt><trkpt lat="51.8994273059" lon="-1.7795352079"><ele>188.56</ele><time>2017-03-29T10:31:50Z</time></trkpt><trkpt lat="51.8995552976" lon="-1.7796152551"><ele>189.52</ele><time>2017-03-29T10:32:04Z</time></trkpt><trkpt lat="51.8996806908" lon="-1.7796917818"><ele>189.52</ele><time>2017-03-29T10:32:17Z</time></trkpt><trkpt lat="51.8996866420" lon="-1.7796971463"><ele>190.00</ele><time>2017-03-29T10:32:18Z</time></trkpt><trkpt lat="51.8997160625" lon="-1.7797139939"><ele>190.00</ele><time>2017-03-29T10:32:22Z</time></trkpt><trkpt lat="51.8998367619" lon="-1.7797923647"><ele>190.96</ele><time>2017-03-29T10:32:34Z</time></trkpt><trkpt lat="51.8998851255" lon="-1.7798170075"><ele>193.36</ele><time>2017-03-29T10:32:45Z</time></trkpt><trkpt lat="51.8999202456" lon="-1.7798305023"><ele>190.96</ele><time>2017-03-29T10:32:49Z</time></trkpt><trkpt lat="51.8999597244" lon="-1.7798513733"><ele>191.44</ele><time>2017-03-29T10:32:54Z</time></trkpt><trkpt lat="51.9000030588" lon="-1.7798871640"><ele>191.44</ele><time>2017-03-29T10:32:59Z</time></trkpt><trkpt lat="51.9001267757" lon="-1.7800415587"><ele>191.92</ele><time>2017-03-29T10:33:14Z</time></trkpt><trkpt lat="51.9002457988" lon="-1.7802217696"><ele>192.40</ele><time>2017-03-29T10:33:31Z</time></trkpt><trkpt lat="51.9002886303" lon="-1.7802969553"><ele>192.88</ele><time>2017-03-29T10:33:36Z</time></trkpt><trkpt lat="51.9003208168" lon="-1.7803549580"><ele>192.40</ele><time>2017-03-29T10:33:40Z</time></trkpt><trkpt lat="51.9004130177" lon="-1.7804547027"><ele>193.36</ele><time>2017-03-29T10:33:50Z</time></trkpt><trkpt lat="51.9004360680" lon="-1.7804828659"><ele>193.36</ele><time>2017-03-29T10:33:53Z</time></trkpt><trkpt lat="51.9005488046" lon="-1.7806262802"><ele>193.36</ele><time>2017-03-29T10:34:07Z</time></trkpt><trkpt lat="51.9006531592" lon="-1.7807656713"><ele>193.84</ele><time>2017-03-29T10:34:21Z</time></trkpt><trkpt lat="51.9007626269" lon="-1.7809188925"><ele>194.32</ele><time>2017-03-29T10:34:35Z</time></trkpt><trkpt lat="51.9008577615" lon="-1.7810939904"><ele>195.28</ele><time>2017-03-29T10:34:49Z</time></trkpt><trkpt lat="51.9009601045" lon="-1.7812249158"><ele>195.77</ele><time>2017-03-29T10:35:02Z</time></trkpt><trkpt lat="51.9009685703" lon="-1.7812379077"><ele>195.77</ele><time>2017-03-29T10:35:03Z</time></trkpt><trkpt lat="51.9010647945" lon="-1.7814049590"><ele>196.25</ele><time>2017-03-29T10:35:17Z</time></trkpt><trkpt lat="51.9010845758" lon="-1.7814696673"><ele>196.73</ele><time>2017-03-29T10:35:21Z</time></trkpt><trkpt lat="51.9010984059" lon="-1.7815425061"><ele>196.25</ele><time>2017-03-29T10:35:24Z</time></trkpt><trkpt lat="51.9011815544" lon="-1.7817041092"><ele>197.21</ele><time>2017-03-29T10:35:36Z</time></trkpt><trkpt lat="51.9012455922" lon="-1.7819041014"><ele>197.69</ele><time>2017-03-29T10:35:49Z</time></trkpt><trkpt lat="51.9012787007" lon="-1.7819873337"><ele>198.17</ele><time>2017-03-29T10:35:55Z</time></trkpt><trkpt lat="51.9013216998" lon="-1.7820663750"><ele>198.65</ele><time>2017-03-29T10:36:01Z</time></trkpt><trkpt lat="51.9014372863" lon="-1.7822325043"><ele>199.61</ele><time>2017-03-29T10:36:15Z</time></trkpt><trkpt lat="51.9015284814" lon="-1.7823769245"><ele>199.61</ele><time>2017-03-29T10:36:27Z</time></trkpt><trkpt lat="51.9015885796" lon="-1.7824484222"><ele>200.57</ele><time>2017-03-29T10:36:37Z</time></trkpt><trkpt lat="51.9016623404" lon="-1.7825841252"><ele>201.05</ele><time>2017-03-29T10:36:49Z</time></trkpt><trkpt lat="51.9017174095" lon="-1.7827424593"><ele>201.53</ele><time>2017-03-29T10:37:01Z</time></trkpt><trkpt lat="51.9017943554" lon="-1.7828664277"><ele>202.01</ele><time>2017-03-29T10:37:14Z</time></trkpt><trkpt lat="51.9018565491" lon="-1.7829478998"><ele>203.46</ele><time>2017-03-29T10:37:27Z</time></trkpt><trkpt lat="51.9019671064" lon="-1.7831457127"><ele>204.42</ele><time>2017-03-29T10:37:42Z</time></trkpt><trkpt lat="51.9020510931" lon="-1.7832464632"><ele>205.38</ele><time>2017-03-29T10:37:56Z</time></trkpt><trkpt lat="51.9021898974" lon="-1.7834256683"><ele>205.38</ele><time>2017-03-29T10:38:12Z</time></trkpt><trkpt lat="51.9023167156" lon="-1.7836145125"><ele>206.82</ele><time>2017-03-29T10:38:25Z</time></trkpt><trkpt lat="51.9023781549" lon="-1.7836924642"><ele>205.86</ele><time>2017-03-29T10:38:33Z</time></trkpt><trkpt lat="51.9025022071" lon="-1.7838335317"><ele>205.86</ele><time>2017-03-29T10:38:47Z</time></trkpt><trkpt lat="51.9025463797" lon="-1.7838886008"><ele>205.86</ele><time>2017-03-29T10:38:58Z</time></trkpt><trkpt lat="51.9025716092" lon="-1.7839177698"><ele>206.34</ele><time>2017-03-29T10:39:01Z</time></trkpt><trkpt lat="51.9026165362" lon="-1.7839737609"><ele>206.34</ele><time>2017-03-29T10:39:07Z</time></trkpt><trkpt lat="51.9026466273" lon="-1.7839928716"><ele>205.86</ele><time>2017-03-29T10:39:10Z</time></trkpt><trkpt lat="51.9027366489" lon="-1.7841294967"><ele>205.86</ele><time>2017-03-29T10:39:23Z</time></trkpt><trkpt lat="51.9027960766" lon="-1.7841798719"><ele>206.34</ele><time>2017-03-29T10:39:30Z</time></trkpt><trkpt lat="51.9028477091" lon="-1.7842988949"><ele>206.82</ele><time>2017-03-29T10:39:39Z</time></trkpt><trkpt lat="51.9029235654" lon="-1.7843962926"><ele>206.82</ele><time>2017-03-29T10:39:49Z</time></trkpt><trkpt lat="51.9030089770" lon="-1.7845680378"><ele>206.34</ele><time>2017-03-29T10:40:03Z</time></trkpt><trkpt lat="51.9031270780" lon="-1.7846764997"><ele>206.34</ele><time>2017-03-29T10:40:18Z</time></trkpt><trkpt lat="51.9032160938" lon="-1.7847883143"><ele>206.82</ele><time>2017-03-29T10:40:31Z</time></trkpt><trkpt lat="51.9033034332" lon="-1.7849685252"><ele>206.82</ele><time>2017-03-29T10:40:44Z</time></trkpt><trkpt lat="51.9034020044" lon="-1.7850618996"><ele>206.82</ele><time>2017-03-29T10:40:59Z</time></trkpt><trkpt lat="51.9034981448" lon="-1.7852034699"><ele>206.82</ele><time>2017-03-29T10:41:13Z</time></trkpt><trkpt lat="51.9035502803" lon="-1.7853151169"><ele>207.30</ele><time>2017-03-29T10:41:25Z</time></trkpt><trkpt lat="51.9036432356" lon="-1.7854272667"><ele>206.82</ele><time>2017-03-29T10:41:38Z</time></trkpt><trkpt lat="51.9037316646" lon="-1.7855336331"><ele>207.30</ele><time>2017-03-29T10:41:51Z</time></trkpt><trkpt lat="51.9038270507" lon="-1.7857070547"><ele>207.78</ele><time>2017-03-29T10:42:04Z</time></trkpt><trkpt lat="51.9038867299" lon="-1.7859666422"><ele>208.26</ele><time>2017-03-29T10:42:18Z</time></trkpt><trkpt lat="51.9038934354" lon="-1.7859833222"><ele>208.74</ele><time>2017-03-29T10:42:41Z</time></trkpt><trkpt lat="51.9039049186" lon="-1.7859851662"><ele>207.78</ele><time>2017-03-29T10:43:11Z</time></trkpt><trkpt lat="51.9039099477" lon="-1.7859835736"><ele>208.74</ele><time>2017-03-29T10:43:34Z</time></trkpt><trkpt lat="51.9039757457" lon="-1.7858943902"><ele>208.74</ele><time>2017-03-29T10:43:48Z</time></trkpt><trkpt lat="51.9040292222" lon="-1.7856823280"><ele>208.26</ele><time>2017-03-29T10:44:04Z</time></trkpt><trkpt lat="51.9040719699" lon="-1.7854338884"><ele>207.78</ele><time>2017-03-29T10:44:20Z</time></trkpt><trkpt lat="51.9041082636" lon="-1.7853398435"><ele>207.30</ele><time>2017-03-29T10:44:34Z</time></trkpt><trkpt lat="51.9041065872" lon="-1.7852033861"><ele>207.78</ele><time>2017-03-29T10:44:50Z</time></trkpt><trkpt lat="51.9041179027" lon="-1.7850068305"><ele>206.82</ele><time>2017-03-29T10:45:05Z</time></trkpt><trkpt lat="51.9041660149" lon="-1.7848564591"><ele>206.82</ele><time>2017-03-29T10:45:17Z</time></trkpt><trkpt lat="51.9042132888" lon="-1.7847029865"><ele>205.86</ele><time>2017-03-29T10:45:34Z</time></trkpt><trkpt lat="51.9042061642" lon="-1.7846775893"><ele>205.86</ele><time>2017-03-29T10:45:47Z</time></trkpt><trkpt lat="51.9041997101" lon="-1.7845680378"><ele>205.86</ele><time>2017-03-29T10:46:05Z</time></trkpt><trkpt lat="51.9042209163" lon="-1.7843373679"><ele>205.38</ele><time>2017-03-29T10:46:22Z</time></trkpt><trkpt lat="51.9043034781" lon="-1.7841958813"><ele>205.38</ele><time>2017-03-29T10:46:37Z</time></trkpt><trkpt lat="51.9043654203" lon="-1.7839964759"><ele>203.94</ele><time>2017-03-29T10:46:54Z</time></trkpt><trkpt lat="51.9044039771" lon="-1.7837963160"><ele>203.46</ele><time>2017-03-29T10:47:12Z</time></trkpt><trkpt lat="51.9044081680" lon="-1.7837723438"><ele>203.46</ele><time>2017-03-29T10:47:27Z</time></trkpt><trkpt lat="51.9043940865" lon="-1.7836615350"><ele>202.98</ele><time>2017-03-29T10:47:35Z</time></trkpt><trkpt lat="51.9044324756" lon="-1.7834573518"><ele>201.05</ele><time>2017-03-29T10:47:50Z</time></trkpt><trkpt lat="51.9044255186" lon="-1.7832038831"><ele>199.61</ele><time>2017-03-29T10:48:05Z</time></trkpt><trkpt lat="51.9043835253" lon="-1.7829465587"><ele>198.65</ele><time>2017-03-29T10:48:21Z</time></trkpt><trkpt lat="51.9043765683" lon="-1.7829064932"><ele>198.65</ele><time>2017-03-29T10:48:24Z</time></trkpt><trkpt lat="51.9043438789" lon="-1.7826807685"><ele>197.21</ele><time>2017-03-29T10:48:38Z</time></trkpt><trkpt lat="51.9043245167" lon="-1.7825041618"><ele>196.25</ele><time>2017-03-29T10:48:50Z</time></trkpt><trkpt lat="51.9043044839" lon="-1.7823140603"><ele>195.77</ele><time>2017-03-29T10:49:03Z</time></trkpt><trkpt lat="51.9042779971" lon="-1.7821624316"><ele>195.28</ele><time>2017-03-29T10:49:13Z</time></trkpt><trkpt lat="51.9042656757" lon="-1.7819438316"><ele>195.28</ele><time>2017-03-29T10:49:28Z</time></trkpt><trkpt lat="51.9042417035" lon="-1.7817879282"><ele>194.80</ele><time>2017-03-29T10:49:43Z</time></trkpt><trkpt lat="51.9042271189" lon="-1.7816846631"><ele>194.80</ele><time>2017-03-29T10:49:57Z</time></trkpt><trkpt lat="51.9042060804" lon="-1.7816342879"><ele>193.84</ele><time>2017-03-29T10:50:08Z</time></trkpt><trkpt lat="51.9042106066" lon="-1.7816217989"><ele>193.84</ele><time>2017-03-29T10:50:10Z</time></trkpt><trkpt lat="51.9042566232" lon="-1.7814456951"><ele>193.36</ele><time>2017-03-29T10:50:24Z</time></trkpt><trkpt lat="51.9043218344" lon="-1.7812975030"><ele>192.40</ele><time>2017-03-29T10:50:36Z</time></trkpt><trkpt lat="51.9044064078" lon="-1.7810958344"><ele>190.96</ele><time>2017-03-29T10:50:52Z</time></trkpt><trkpt lat="51.9044733793" lon="-1.7809310462"><ele>189.52</ele><time>2017-03-29T10:51:06Z</time></trkpt><trkpt lat="51.9045180548" lon="-1.7808051500"><ele>188.08</ele><time>2017-03-29T10:51:20Z</time></trkpt><trkpt lat="51.9045774825" lon="-1.7806437146"><ele>186.15</ele><time>2017-03-29T10:51:34Z</time></trkpt><trkpt lat="51.9046535064" lon="-1.7804917507"><ele>183.75</ele><time>2017-03-29T10:51:49Z</time></trkpt><trkpt lat="51.9046785682" lon="-1.7804260366"><ele>181.83</ele><time>2017-03-29T10:52:01Z</time></trkpt><trkpt lat="51.9047486410" lon="-1.7802465800"><ele>180.38</ele><time>2017-03-29T10:52:16Z</time></trkpt><trkpt lat="51.9047460426" lon="-1.7802125495"><ele>180.38</ele><time>2017-03-29T10:52:18Z</time></trkpt><trkpt lat="51.9047250878" lon="-1.7799621820"><ele>177.98</ele><time>2017-03-29T10:52:36Z</time></trkpt><trkpt lat="51.9047279377" lon="-1.7799094599"><ele>177.02</ele><time>2017-03-29T10:52:40Z</time></trkpt><trkpt lat="51.9047953282" lon="-1.7797473539"><ele>175.10</ele><time>2017-03-29T10:52:55Z</time></trkpt><trkpt lat="51.9048784766" lon="-1.7795955576"><ele>173.66</ele><time>2017-03-29T10:53:09Z</time></trkpt><trkpt lat="51.9049544167" lon="-1.7794678174"><ele>172.69</ele><time>2017-03-29T10:53:22Z</time></trkpt><trkpt lat="51.9050022773" lon="-1.7793682404"><ele>172.21</ele><time>2017-03-29T10:53:32Z</time></trkpt><trkpt lat="51.9050674047" lon="-1.7792418413"><ele>170.29</ele><time>2017-03-29T10:53:46Z</time></trkpt><trkpt lat="51.9051443506" lon="-1.7791109160"><ele>168.85</ele><time>2017-03-29T10:54:00Z</time></trkpt><trkpt lat="51.9052322768" lon="-1.7789545096"><ele>167.41</ele><time>2017-03-29T10:54:16Z</time></trkpt><trkpt lat="51.9052457716" lon="-1.7789330520"><ele>167.41</ele><time>2017-03-29T10:54:18Z</time></trkpt><trkpt lat="51.9053233881" lon="-1.7788063176"><ele>166.45</ele><time>2017-03-29T10:54:31Z</time></trkpt><trkpt lat="51.9054161757" lon="-1.7786649987"><ele>165.00</ele><time>2017-03-29T10:54:47Z</time></trkpt><trkpt lat="51.9054891821" lon="-1.7785475682"><ele>164.04</ele><time>2017-03-29T10:55:00Z</time></trkpt><trkpt lat="51.9055153336" lon="-1.7785088439"><ele>163.08</ele><time>2017-03-29T10:55:04Z</time></trkpt><trkpt lat="51.9055949617" lon="-1.7783527728"><ele>161.64</ele><time>2017-03-29T10:55:18Z</time></trkpt><trkpt lat="51.9056920242" lon="-1.7781944387"><ele>160.68</ele><time>2017-03-29T10:55:34Z</time></trkpt><trkpt lat="51.9057824649" lon="-1.7780698836"><ele>159.24</ele><time>2017-03-29T10:55:48Z</time></trkpt><trkpt lat="51.9058061857" lon="-1.7780347634"><ele>159.24</ele><time>2017-03-29T10:55:52Z</time></trkpt><trkpt lat="51.9058890827" lon="-1.7778879125"><ele>157.31</ele><time>2017-03-29T10:56:08Z</time></trkpt><trkpt lat="51.9059465826" lon="-1.7777729966"><ele>155.87</ele><time>2017-03-29T10:56:22Z</time></trkpt><trkpt lat="51.9059947785" lon="-1.7776608467"><ele>153.95</ele><time>2017-03-29T10:56:38Z</time></trkpt><trkpt lat="51.9060975406" lon="-1.7774614412"><ele>152.51</ele><time>2017-03-29T10:56:56Z</time></trkpt><trkpt lat="51.9061839581" lon="-1.7773213796"><ele>151.54</ele><time>2017-03-29T10:57:09Z</time></trkpt><trkpt lat="51.9062633347" lon="-1.7771288473"><ele>150.10</ele><time>2017-03-29T10:57:26Z</time></trkpt><trkpt lat="51.9063114468" lon="-1.7770922184"><ele>149.62</ele><time>2017-03-29T10:57:40Z</time></trkpt><trkpt lat="51.9063226786" lon="-1.7770781368"><ele>150.10</ele><time>2017-03-29T10:57:55Z</time></trkpt><trkpt lat="51.9063693658" lon="-1.7769355606"><ele>149.14</ele><time>2017-03-29T10:58:09Z</time></trkpt><trkpt lat="51.9063816033" lon="-1.7768919747"><ele>149.14</ele><time>2017-03-29T10:58:13Z</time></trkpt><trkpt lat="51.9064618181" lon="-1.7767535895"><ele>148.18</ele><time>2017-03-29T10:58:28Z</time></trkpt><trkpt lat="51.9064913224" lon="-1.7766612209"><ele>147.70</ele><time>2017-03-29T10:58:35Z</time></trkpt><trkpt lat="51.9065702800" lon="-1.7764488235"><ele>147.22</ele><time>2017-03-29T10:58:51Z</time></trkpt><trkpt lat="51.9066033885" lon="-1.7763312254"><ele>147.22</ele><time>2017-03-29T10:59:02Z</time></trkpt><trkpt lat="51.9066378381" lon="-1.7761666048"><ele>147.22</ele><time>2017-03-29T10:59:15Z</time></trkpt><trkpt lat="51.9066695217" lon="-1.7760226037"><ele>146.74</ele><time>2017-03-29T10:59:27Z</time></trkpt><trkpt lat="51.9066932425" lon="-1.7758765072"><ele>146.26</ele><time>2017-03-29T10:59:36Z</time></trkpt><trkpt lat="51.9067828450" lon="-1.7756655347"><ele>145.30</ele><time>2017-03-29T10:59:51Z</time></trkpt><trkpt lat="51.9068075716" lon="-1.7755113076"><ele>144.82</ele><time>2017-03-29T11:00:03Z</time></trkpt><trkpt lat="51.9068378303" lon="-1.7753547337"><ele>144.34</ele><time>2017-03-29T11:00:17Z</time></trkpt><trkpt lat="51.9068488106" lon="-1.7752871756"><ele>144.34</ele><time>2017-03-29T11:00:21Z</time></trkpt><trkpt lat="51.9068985153" lon="-1.7751004267"><ele>143.85</ele><time>2017-03-29T11:00:32Z</time></trkpt><trkpt lat="51.9069447834" lon="-1.7749327049"><ele>143.37</ele><time>2017-03-29T11:00:44Z</time></trkpt><trkpt lat="51.9069142733" lon="-1.7747243308"><ele>143.37</ele><time>2017-03-29T11:01:00Z</time></trkpt><trkpt lat="51.9069116749" lon="-1.7744923197"><ele>142.41</ele><time>2017-03-29T11:01:15Z</time></trkpt><trkpt lat="51.9069353119" lon="-1.7743510846"><ele>141.93</ele><time>2017-03-29T11:01:24Z</time></trkpt><trkpt lat="51.9069619663" lon="-1.7742224224"><ele>142.41</ele><time>2017-03-29T11:01:32Z</time></trkpt><trkpt lat="51.9070421811" lon="-1.7740989570"><ele>141.93</ele><time>2017-03-29T11:01:45Z</time></trkpt><trkpt lat="51.9070932269" lon="-1.7740961071"><ele>141.93</ele><time>2017-03-29T11:01:49Z</time></trkpt><trkpt lat="51.9071332924" lon="-1.7740872223"><ele>141.93</ele><time>2017-03-29T11:01:52Z</time></trkpt><trkpt lat="51.9072635472" lon="-1.7739582248"><ele>141.45</ele><time>2017-03-29T11:02:07Z</time></trkpt><trkpt lat="51.9072685763" lon="-1.7738488410"><ele>140.97</ele><time>2017-03-29T11:02:19Z</time></trkpt><trkpt lat="51.9072798919" lon="-1.7736832146"><ele>139.53</ele><time>2017-03-29T11:02:32Z</time></trkpt><trkpt lat="51.9073751941" lon="-1.7734752595"><ele>138.57</ele><time>2017-03-29T11:02:48Z</time></trkpt><trkpt lat="51.9074530620" lon="-1.7732686456"><ele>137.61</ele><time>2017-03-29T11:03:02Z</time></trkpt><trkpt lat="51.9074911997" lon="-1.7730497941"><ele>138.09</ele><time>2017-03-29T11:03:17Z</time></trkpt><trkpt lat="51.9075277448" lon="-1.7729334533"><ele>138.09</ele><time>2017-03-29T11:03:30Z</time></trkpt><trkpt lat="51.9075349532" lon="-1.7729098164"><ele>138.09</ele><time>2017-03-29T11:03:45Z</time></trkpt><trkpt lat="51.9075031858" lon="-1.7728179507"><ele>138.09</ele><time>2017-03-29T11:04:01Z</time></trkpt><trkpt lat="51.9074765313" lon="-1.7727643065"><ele>137.61</ele><time>2017-03-29T11:04:06Z</time></trkpt><trkpt lat="51.9074181933" lon="-1.7725945730"><ele>139.05</ele><time>2017-03-29T11:04:21Z</time></trkpt><trkpt lat="51.9073642977" lon="-1.7725335527"><ele>139.53</ele><time>2017-03-29T11:04:31Z</time></trkpt><trkpt lat="51.9073309377" lon="-1.7724351492"><ele>141.45</ele><time>2017-03-29T11:04:44Z</time></trkpt><trkpt lat="51.9073136710" lon="-1.7723742966"><ele>142.41</ele><time>2017-03-29T11:04:55Z</time></trkpt><trkpt lat="51.9073059596" lon="-1.7723481450"><ele>142.89</ele><time>2017-03-29T11:04:57Z</time></trkpt><trkpt lat="51.9072650559" lon="-1.7721235100"><ele>144.82</ele><time>2017-03-29T11:05:11Z</time></trkpt><trkpt lat="51.9072127528" lon="-1.7720070016"><ele>144.82</ele><time>2017-03-29T11:05:23Z</time></trkpt><trkpt lat="51.9071989227" lon="-1.7719822749"><ele>144.82</ele><time>2017-03-29T11:05:29Z</time></trkpt><trkpt lat="51.9071843382" lon="-1.7719542794"><ele>144.82</ele><time>2017-03-29T11:05:31Z</time></trkpt><trkpt lat="51.9071192946" lon="-1.7717728112"><ele>144.82</ele><time>2017-03-29T11:05:43Z</time></trkpt><trkpt lat="51.9070670754" lon="-1.7715633474"><ele>144.82</ele><time>2017-03-29T11:05:54Z</time></trkpt><trkpt lat="51.9070435222" lon="-1.7714356072"><ele>144.82</ele><time>2017-03-29T11:06:06Z</time></trkpt><trkpt lat="51.9070283510" lon="-1.7714050971"><ele>144.82</ele><time>2017-03-29T11:06:20Z</time></trkpt><trkpt lat="51.9070021994" lon="-1.7713505309"><ele>144.34</ele><time>2017-03-29T11:06:24Z</time></trkpt><trkpt lat="51.9069486391" lon="-1.7711626925"><ele>143.85</ele><time>2017-03-29T11:06:39Z</time></trkpt><trkpt lat="51.9068939053" lon="-1.7709853314"><ele>142.89</ele><time>2017-03-29T11:06:53Z</time></trkpt><trkpt lat="51.9068390876" lon="-1.7707719281"><ele>142.41</ele><time>2017-03-29T11:07:09Z</time></trkpt><trkpt lat="51.9067615550" lon="-1.7705581058"><ele>141.93</ele><time>2017-03-29T11:07:24Z</time></trkpt><trkpt lat="51.9066849444" lon="-1.7703680042"><ele>140.49</ele><time>2017-03-29T11:07:39Z</time></trkpt><trkpt lat="51.9066238403" lon="-1.7701776512"><ele>140.49</ele><time>2017-03-29T11:07:53Z</time></trkpt><trkpt lat="51.9066055678" lon="-1.7700939998"><ele>140.01</ele><time>2017-03-29T11:07:58Z</time></trkpt><trkpt lat="51.9065628201" lon="-1.7699112743"><ele>139.53</ele><time>2017-03-29T11:08:13Z</time></trkpt><trkpt lat="51.9065093435" lon="-1.7698769085"><ele>139.05</ele><time>2017-03-29T11:08:26Z</time></trkpt><trkpt lat="51.9065003749" lon="-1.7698781658"><ele>139.05</ele><time>2017-03-29T11:08:27Z</time></trkpt><trkpt lat="51.9064356666" lon="-1.7698594742"><ele>139.05</ele><time>2017-03-29T11:08:32Z</time></trkpt><trkpt lat="51.9063148834" lon="-1.7697872221"><ele>138.09</ele><time>2017-03-29T11:08:44Z</time></trkpt><trkpt lat="51.9062023982" lon="-1.7695855536"><ele>138.09</ele><time>2017-03-29T11:09:01Z</time></trkpt><trkpt lat="51.9061218482" lon="-1.7694599926"><ele>138.09</ele><time>2017-03-29T11:09:13Z</time></trkpt><trkpt lat="51.9061107840" lon="-1.7694432288"><ele>138.57</ele><time>2017-03-29T11:09:15Z</time></trkpt><trkpt lat="51.9060928468" lon="-1.7694093660"><ele>138.09</ele><time>2017-03-29T11:09:18Z</time></trkpt><trkpt lat="51.9060009811" lon="-1.7692222819"><ele>138.09</ele><time>2017-03-29T11:09:32Z</time></trkpt><trkpt lat="51.9058962073" lon="-1.7690818012"><ele>137.61</ele><time>2017-03-29T11:09:46Z</time></trkpt><trkpt lat="51.9058057666" lon="-1.7689146660"><ele>137.61</ele><time>2017-03-29T11:09:59Z</time></trkpt><trkpt lat="51.9057002384" lon="-1.7687388137"><ele>137.61</ele><time>2017-03-29T11:10:14Z</time></trkpt><trkpt lat="51.9055880047" lon="-1.7685425095"><ele>137.13</ele><time>2017-03-29T11:10:30Z</time></trkpt><trkpt lat="51.9055633619" lon="-1.7685078923"><ele>137.13</ele><time>2017-03-29T11:10:33Z</time></trkpt><trkpt lat="51.9054448418" lon="-1.7683523241"><ele>137.13</ele><time>2017-03-29T11:10:48Z</time></trkpt><trkpt lat="51.9053393137" lon="-1.7682061438"><ele>137.13</ele><time>2017-03-29T11:11:03Z</time></trkpt><trkpt lat="51.9053094741" lon="-1.7681371607"><ele>137.61</ele><time>2017-03-29T11:11:18Z</time></trkpt><trkpt lat="51.9052815624" lon="-1.7681207322"><ele>137.13</ele><time>2017-03-29T11:11:25Z</time></trkpt><trkpt lat="51.9052238110" lon="-1.7680835165"><ele>137.13</ele><time>2017-03-29T11:11:32Z</time></trkpt><trkpt lat="51.9050788879" lon="-1.7679519206"><ele>137.61</ele><time>2017-03-29T11:11:45Z</time></trkpt><trkpt lat="51.9049299415" lon="-1.7678606417"><ele>137.13</ele><time>2017-03-29T11:11:59Z</time></trkpt><trkpt lat="51.9049204700" lon="-1.7678575404"><ele>137.13</ele><time>2017-03-29T11:12:00Z</time></trkpt><trkpt lat="51.9047677517" lon="-1.7677910719"><ele>137.13</ele><time>2017-03-29T11:12:14Z</time></trkpt><trkpt lat="51.9046347309" lon="-1.7677567061"><ele>137.13</ele><time>2017-03-29T11:12:28Z</time></trkpt><trkpt lat="51.9045861997" lon="-1.7677283753"><ele>136.64</ele><time>2017-03-29T11:12:33Z</time></trkpt><trkpt lat="51.9045364950" lon="-1.7677148804"><ele>136.64</ele><time>2017-03-29T11:12:38Z</time></trkpt><trkpt lat="51.9044005405" lon="-1.7676892318"><ele>136.16</ele><time>2017-03-29T11:12:52Z</time></trkpt><trkpt lat="51.9042546116" lon="-1.7676521000"><ele>135.68</ele><time>2017-03-29T11:13:07Z</time></trkpt><trkpt lat="51.9042142108" lon="-1.7676206678"><ele>136.16</ele><time>2017-03-29T11:13:21Z</time></trkpt><trkpt lat="51.9041899871" lon="-1.7675898224"><ele>135.68</ele><time>2017-03-29T11:13:38Z</time></trkpt><trkpt lat="51.9040850457" lon="-1.7674993817"><ele>135.68</ele><time>2017-03-29T11:13:50Z</time></trkpt><trkpt lat="51.9039599877" lon="-1.7672852241"><ele>136.16</ele><time>2017-03-29T11:14:03Z</time></trkpt><trkpt lat="51.9039484207" lon="-1.7672637664"><ele>135.68</ele><time>2017-03-29T11:14:05Z</time></trkpt><trkpt lat="51.9039203413" lon="-1.7671922687"><ele>135.68</ele><time>2017-03-29T11:14:10Z</time></trkpt><trkpt lat="51.9038503524" lon="-1.7670190148"><ele>135.68</ele><time>2017-03-29T11:14:23Z</time></trkpt><trkpt lat="51.9037978817" lon="-1.7668489460"><ele>135.68</ele><time>2017-03-29T11:14:38Z</time></trkpt><trkpt lat="51.9037469197" lon="-1.7666880973"><ele>136.16</ele><time>2017-03-29T11:14:52Z</time></trkpt><trkpt lat="51.9036865700" lon="-1.7665383965"><ele>135.68</ele><time>2017-03-29T11:15:08Z</time></trkpt><trkpt lat="51.9035674632" lon="-1.7662810721"><ele>135.68</ele><time>2017-03-29T11:15:25Z</time></trkpt><trkpt lat="51.9034990668" lon="-1.7661713529"><ele>135.68</ele><time>2017-03-29T11:15:39Z</time></trkpt><trkpt lat="51.9034514576" lon="-1.7661203910"><ele>135.68</ele><time>2017-03-29T11:15:50Z</time></trkpt><trkpt lat="51.9033402298" lon="-1.7658788245"><ele>136.16</ele><time>2017-03-29T11:16:06Z</time></trkpt><trkpt lat="51.9032020122" lon="-1.7656636611"><ele>135.68</ele><time>2017-03-29T11:16:21Z</time></trkpt><trkpt lat="51.9031207915" lon="-1.7655012198"><ele>136.16</ele><time>2017-03-29T11:16:35Z</time></trkpt><trkpt lat="51.9030826539" lon="-1.7654580530"><ele>136.16</ele><time>2017-03-29T11:16:39Z</time></trkpt><trkpt lat="51.9030165207" lon="-1.7653298099"><ele>135.68</ele><time>2017-03-29T11:16:48Z</time></trkpt><trkpt lat="51.9030005112" lon="-1.7653036583"><ele>136.16</ele><time>2017-03-29T11:16:50Z</time></trkpt><trkpt lat="51.9029168598" lon="-1.7651573103"><ele>135.68</ele><time>2017-03-29T11:17:02Z</time></trkpt><trkpt lat="51.9028980006" lon="-1.7651297338"><ele>136.16</ele><time>2017-03-29T11:17:05Z</time></trkpt><trkpt lat="51.9028168637" lon="-1.7649891693"><ele>136.16</ele><time>2017-03-29T11:17:18Z</time></trkpt><trkpt lat="51.9027545862" lon="-1.7648341879"><ele>136.16</ele><time>2017-03-29T11:17:31Z</time></trkpt><trkpt lat="51.9026149437" lon="-1.7646097206"><ele>136.16</ele><time>2017-03-29T11:17:49Z</time></trkpt><trkpt lat="51.9024980161" lon="-1.7644209601"><ele>136.16</ele><time>2017-03-29T11:18:07Z</time></trkpt><trkpt lat="51.9023763109" lon="-1.7641858477"><ele>136.16</ele><time>2017-03-29T11:18:24Z</time></trkpt><trkpt lat="51.9023129437" lon="-1.7640198022"><ele>136.16</ele><time>2017-03-29T11:18:38Z</time></trkpt><trkpt lat="51.9022662565" lon="-1.7639535014"><ele>136.16</ele><time>2017-03-29T11:18:51Z</time></trkpt><trkpt lat="51.9022239279" lon="-1.7638738733"><ele>136.16</ele><time>2017-03-29T11:18:59Z</time></trkpt><trkpt lat="51.9021400250" lon="-1.7637680098"><ele>135.68</ele><time>2017-03-29T11:19:14Z</time></trkpt><trkpt lat="51.9020629954" lon="-1.7636473943"><ele>136.16</ele><time>2017-03-29T11:19:29Z</time></trkpt><trkpt lat="51.9019434694" lon="-1.7634521797"><ele>136.16</ele><time>2017-03-29T11:19:43Z</time></trkpt><trkpt lat="51.9018881489" lon="-1.7633493338"><ele>135.20</ele><time>2017-03-29T11:19:53Z</time></trkpt><trkpt lat="51.9017827045" lon="-1.7634365894"><ele>134.24</ele><time>2017-03-29T11:20:06Z</time></trkpt><trkpt lat="51.9017063454" lon="-1.7635194864"><ele>134.24</ele><time>2017-03-29T11:20:16Z</time></trkpt><trkpt lat="51.9016304892" lon="-1.7635061592"><ele>133.28</ele><time>2017-03-29T11:20:30Z</time></trkpt><trkpt lat="51.9016253762" lon="-1.7634971067"><ele>132.32</ele><time>2017-03-29T11:20:41Z</time></trkpt><trkpt lat="51.9016415533" lon="-1.7635028902"><ele>134.24</ele><time>2017-03-29T11:20:51Z</time></trkpt><trkpt lat="51.9015867356" lon="-1.7634967715"><ele>134.24</ele><time>2017-03-29T11:21:09Z</time></trkpt><trkpt lat="51.9014903437" lon="-1.7635430396"><ele>133.76</ele><time>2017-03-29T11:21:23Z</time></trkpt><trkpt lat="51.9013422355" lon="-1.7634282075"><ele>134.24</ele><time>2017-03-29T11:21:39Z</time></trkpt><trkpt lat="51.9012596738" lon="-1.7632640060"><ele>134.24</ele><time>2017-03-29T11:21:52Z</time></trkpt><trkpt lat="51.9012475200" lon="-1.7632149719"><ele>134.24</ele><time>2017-03-29T11:21:55Z</time></trkpt><trkpt lat="51.9012086280" lon="-1.7629779316"><ele>133.76</ele><time>2017-03-29T11:22:10Z</time></trkpt><trkpt lat="51.9012049399" lon="-1.7628057674"><ele>134.24</ele><time>2017-03-29T11:22:19Z</time></trkpt><trkpt lat="51.9011964742" lon="-1.7626476847"><ele>133.76</ele><time>2017-03-29T11:22:32Z</time></trkpt><trkpt lat="51.9012365397" lon="-1.7624680605"><ele>134.24</ele><time>2017-03-29T11:22:44Z</time></trkpt><trkpt lat="51.9012399763" lon="-1.7624539789"><ele>134.24</ele><time>2017-03-29T11:22:45Z</time></trkpt><trkpt lat="51.9013140723" lon="-1.7622471135"><ele>134.24</ele><time>2017-03-29T11:23:00Z</time></trkpt><trkpt lat="51.9013562333" lon="-1.7620228976"><ele>134.24</ele><time>2017-03-29T11:23:15Z</time></trkpt><trkpt lat="51.9014075305" lon="-1.7618131824"><ele>134.72</ele><time>2017-03-29T11:23:30Z</time></trkpt><trkpt lat="51.9014269765" lon="-1.7615936603"><ele>134.24</ele><time>2017-03-29T11:23:46Z</time></trkpt><trkpt lat="51.9014244620" lon="-1.7614847794"><ele>134.72</ele><time>2017-03-29T11:23:54Z</time></trkpt><trkpt lat="51.9013952091" lon="-1.7614680994"><ele>134.24</ele><time>2017-03-29T11:24:00Z</time></trkpt><trkpt lat="51.9012346119" lon="-1.7614316382"><ele>134.24</ele><time>2017-03-29T11:24:18Z</time></trkpt><trkpt lat="51.9011334423" lon="-1.7614031397"><ele>134.72</ele><time>2017-03-29T11:24:33Z</time></trkpt><trkpt lat="51.9011178520" lon="-1.7613933329"><ele>134.24</ele><time>2017-03-29T11:24:36Z</time></trkpt></trkseg></trk></gpx>